LPLA METAR and TAF weather

Enter ICAO airport designator
Station Type Date Time Source
LPLA METAR 2020/01/19 19:00 UTC NOAA

LPLA 191900Z /////KT 9999 FEW020 BKN045 18/14 Q1027


Station Type Date Time Source
LPLA Decoded METAR 2020/01/19 19:00 UTC NOAA

Lajes Acores , Portugal (LPLA) 38-46N 027-06W 54M
Jan 19, 2020 - 02:00 PM EST / 2020.01.19 1900 UTC
Visibility: greater than 7 mile(s):0
Sky conditions: mostly cloudy
Temperature: 64 F (18 C)
Dew Point: 57 F (14 C)
Relative Humidity: 77%
Pressure (altimeter): 30.33 in. Hg (1027 hPa)
ob: LPLA 191900Z /////KT 9999 FEW020 BKN045 18/14 Q1027
cycle: 19

Station Type Date Time Source
LPLA TAF 2020/01/19 18:18 UTC NOAA

TAF LPLA 191700Z 1918/2018 14015KT 9999 FEW020 SCT035
TEMPO 1918/2013 15018G28KT
TEMPO 2006/2012 5000 DZ BR SCT004 BKN007
BECMG 2012/2014 09012KT
TEMPO 2014/2018 10015G25KT

Example: see airport list